Alev Kaman — TCCN5 — position and weather

sailwx.info

Track history (hours):
 
Tides and Currents Weather Stations Pressure Air Temp Water Temp Dewpoint Dewpoint Depression Visibility Wind Speed Wind Dir Waves Ship Positions

Alev Kaman

Last reported at 2015-Feb-26 03:05 UTC. Time now 2015-Mar-03 22:43 UTC.
Position N 40°46' E 029°38'.

Length 93 m; draft 6.3 m.

Type: Tanker. MMSI: 271000716.

Date/timePositionNaut miles runAvg speedWind from/ knotsBaromVisibWave heightAir tempDewpointWater temp
2015-Feb-26 03:05N 40°46' E 029°38'510.4
2015-Feb-26 02:33N 40°45' E 029°30'9 9.3
2015-Feb-26 01:33N 40°44' E 029°18'1010.0
2015-Feb-26 00:33N 40°44' E 029°05'1110.5
2015-Feb-25 23:32N 40°43' E 028°51'1110.7
2015-Feb-25 22:32N 40°45' E 028°37'  
2015-Feb-20 06:10N 40°46' E 029°38'0 0.0
2015-Feb-20 05:20N 40°46' E 029°38'0 0.0
2015-Feb-20 04:22N 40°46' E 029°38'0 0.0
2015-Feb-20 03:31N 40°46' E 029°38'6 5.6
2015-Feb-20 02:26N 40°45' E 029°30'8 9.4
2015-Feb-20 01:33N 40°43' E 029°20'1010.4
2015-Feb-20 00:33N 40°43' E 029°06'1010.5
2015-Feb-19 23:33N 40°43' E 028°52'1010.1
2015-Feb-19 22:31N 40°46' E 028°38'1210.8
2015-Feb-19 21:24N 40°51' E 028°24'  
2015-Feb-17 13:15N 40°46' E 028°60'7 9.9
2015-Feb-17 12:32N 40°45' E 029°09'1010.0
2015-Feb-17 11:33N 40°45' E 029°22'8 0.5
2015-Feb-16 18:15N 40°46' E 029°33'4 5.6
2015-Feb-16 17:28N 40°45' E 029°39'  
Track history (hours):
 
Tides and Currents Weather Stations Pressure Air Temp Water Temp Dewpoint Dewpoint Depression Visibility Wind Speed Wind Dir Waves Ship Positions

Alev Kaman

Last reported at 2015-Feb-26 03:05 UTC. Time now 2015-Mar-03 22:43 UTC.
Position N 40°46' E 029°38'.

Length 93 m; draft 6.3 m.

Type: Tanker. MMSI: 271000716.

Date/timePositionNaut miles runAvg speedWind from/ knotsBaromVisibWave heightAir tempDewpointWater temp
2015-Feb-26 03:05N 40°46' E 029°38'510.4
2015-Feb-26 02:33N 40°45' E 029°30'9 9.3
2015-Feb-26 01:33N 40°44' E 029°18'1010.0
2015-Feb-26 00:33N 40°44' E 029°05'1110.5
2015-Feb-25 23:32N 40°43' E 028°51'1110.7
2015-Feb-25 22:32N 40°45' E 028°37'  
2015-Feb-20 06:10N 40°46' E 029°38'0 0.0
2015-Feb-20 05:20N 40°46' E 029°38'0 0.0
2015-Feb-20 04:22N 40°46' E 029°38'0 0.0
2015-Feb-20 03:31N 40°46' E 029°38'6 5.6
2015-Feb-20 02:26N 40°45' E 029°30'8 9.4
2015-Feb-20 01:33N 40°43' E 029°20'1010.4
2015-Feb-20 00:33N 40°43' E 029°06'1010.5
2015-Feb-19 23:33N 40°43' E 028°52'1010.1
2015-Feb-19 22:31N 40°46' E 028°38'1210.8
2015-Feb-19 21:24N 40°51' E 028°24'  
2015-Feb-17 13:15N 40°46' E 028°60'7 9.9
2015-Feb-17 12:32N 40°45' E 029°09'1010.0
2015-Feb-17 11:33N 40°45' E 029°22'8 0.5
2015-Feb-16 18:15N 40°46' E 029°33'4 5.6
2015-Feb-16 17:28N 40°45' E 029°39'  

Dump ship's entire track history